sensor_id;sensor_type;location;lat;lon;timestamp;temperature;humidity
48686;DHT22;34485;51.536;3.816;2023-11-21T00:01:38;8.80;99.90
48686;DHT22;34485;51.536;3.816;2023-11-21T00:04:04;8.90;99.90
48686;DHT22;34485;51.536;3.816;2023-11-21T00:08:57;8.90;99.90
48686;DHT22;34485;51.536;3.816;2023-11-21T00:11:23;8.90;99.90
48686;DHT22;34485;51.536;3.816;2023-11-21T00:13:50;9.00;99.90
48686;DHT22;34485;51.536;3.816;2023-11-21T00:16:15;9.00;99.90
48686;DHT22;34485;51.536;3.816;2023-11-21T00:18:41;9.00;99.90
48686;DHT22;34485;51.536;3.816;2023-11-21T00:21:08;9.00;99.90
48686;DHT22;34485;51.536;3.816;2023-11-21T00:26:05;9.00;99.90
48686;DHT22;34485;51.536;3.816;2023-11-21T00:28:31;9.00;99.90
48686;DHT22;34485;51.536;3.816;2023-11-21T00:30:56;9.00;99.90
48686;DHT22;34485;51.536;3.816;2023-11-21T00:33:22;9.10;99.90
48686;DHT22;34485;51.536;3.816;2023-11-21T00:38:16;9.20;99.90
48686;DHT22;34485;51.536;3.816;2023-11-21T00:40:45;9.20;99.90
48686;DHT22;34485;51.536;3.816;2023-11-21T00:43:11;9.20;99.90
48686;DHT22;34485;51.536;3.816;2023-11-21T00:45:36;9.20;99.90
48686;DHT22;34485;51.536;3.816;2023-11-21T00:48:02;9.30;99.90
48686;DHT22;34485;51.536;3.816;2023-11-21T00:50:30;9.30;99.90
48686;DHT22;34485;51.536;3.816;2023-11-21T00:52:56;9.30;99.90
48686;DHT22;34485;51.536;3.816;2023-11-21T00:55:22;9.30;99.90
48686;DHT22;34485;51.536;3.816;2023-11-21T00:57:48;9.40;99.90
48686;DHT22;34485;51.536;3.816;2023-11-21T01:00:14;9.40;99.90
48686;DHT22;34485;51.536;3.816;2023-11-21T01:02:45;9.40;99.90
48686;DHT22;34485;51.536;3.816;2023-11-21T01:05:12;9.50;99.90
48686;DHT22;34485;51.536;3.816;2023-11-21T01:07:38;9.50;99.90
48686;DHT22;34485;51.536;3.816;2023-11-21T01:10:04;9.60;99.90
48686;DHT22;34485;51.536;3.816;2023-11-21T01:12:37;9.50;99.90
48686;DHT22;34485;51.536;3.816;2023-11-21T01:15:04;9.60;99.90
48686;DHT22;34485;51.536;3.816;2023-11-21T01:17:32;9.60;99.90
48686;DHT22;34485;51.536;3.816;2023-11-21T01:20:00;9.60;99.90
48686;DHT22;34485;51.536;3.816;2023-11-21T01:22:26;9.60;99.90
48686;DHT22;34485;51.536;3.816;2023-11-21T01:24:53;9.70;99.90
48686;DHT22;34485;51.536;3.816;2023-11-21T01:27:18;9.70;99.90
48686;DHT22;34485;51.536;3.816;2023-11-21T01:29:44;9.70;99.90
48686;DHT22;34485;51.536;3.816;2023-11-21T01:32:10;9.70;99.90
48686;DHT22;34485;51.536;3.816;2023-11-21T01:34:36;9.70;99.90
48686;DHT22;34485;51.536;3.816;2023-11-21T01:37:02;9.80;99.90
48686;DHT22;34485;51.536;3.816;2023-11-21T01:39:30;9.80;99.90
48686;DHT22;34485;51.536;3.816;2023-11-21T01:41:57;9.80;99.90
48686;DHT22;34485;51.536;3.816;2023-11-21T01:44:24;9.90;99.90
48686;DHT22;34485;51.536;3.816;2023-11-21T01:46:50;9.90;99.90
48686;DHT22;34485;51.536;3.816;2023-11-21T01:49:17;9.90;99.90
48686;DHT22;34485;51.536;3.816;2023-11-21T01:51:47;9.90;99.90
48686;DHT22;34485;51.536;3.816;2023-11-21T01:54:17;9.90;99.90
48686;DHT22;34485;51.536;3.816;2023-11-21T01:56:47;9.90;99.90
48686;DHT22;34485;51.536;3.816;2023-11-21T01:59:19;9.90;99.90
48686;DHT22;34485;51.536;3.816;2023-11-21T02:01:46;9.90;99.90
48686;DHT22;34485;51.536;3.816;2023-11-21T02:04:13;10.00;99.90
48686;DHT22;34485;51.536;3.816;2023-11-21T02:06:39;10.00;99.90
48686;DHT22;34485;51.536;3.816;2023-11-21T02:09:05;9.90;99.90
48686;DHT22;34485;51.536;3.816;2023-11-21T02:11:30;10.00;99.90
48686;DHT22;34485;51.536;3.816;2023-11-21T02:13:59;10.00;99.90
48686;DHT22;34485;51.536;3.816;2023-11-21T02:16:24;10.00;99.90
48686;DHT22;34485;51.536;3.816;2023-11-21T02:18:51;10.00;99.90
48686;DHT22;34485;51.536;3.816;2023-11-21T02:21:17;10.00;99.90
48686;DHT22;34485;51.536;3.816;2023-11-21T02:23:44;9.90;99.90
48686;DHT22;34485;51.536;3.816;2023-11-21T02:26:12;9.90;99.90
48686;DHT22;34485;51.536;3.816;2023-11-21T02:28:38;9.90;99.90
48686;DHT22;34485;51.536;3.816;2023-11-21T02:31:04;9.90;99.90
48686;DHT22;34485;51.536;3.816;2023-11-21T02:33:31;9.80;99.90
48686;DHT22;34485;51.536;3.816;2023-11-21T02:36:03;9.80;99.90
48686;DHT22;34485;51.536;3.816;2023-11-21T02:38:29;9.80;99.90
48686;DHT22;34485;51.536;3.816;2023-11-21T02:40:57;9.80;99.90
48686;DHT22;34485;51.536;3.816;2023-11-21T02:43:23;9.80;99.90
48686;DHT22;34485;51.536;3.816;2023-11-21T02:45:49;9.80;99.90
48686;DHT22;34485;51.536;3.816;2023-11-21T02:48:14;9.70;99.90
48686;DHT22;34485;51.536;3.816;2023-11-21T02:50:40;9.70;99.90
48686;DHT22;34485;51.536;3.816;2023-11-21T02:53:05;9.70;99.90
48686;DHT22;34485;51.536;3.816;2023-11-21T02:55:32;9.70;99.90
48686;DHT22;34485;51.536;3.816;2023-11-21T02:58:00;9.70;99.90
48686;DHT22;34485;51.536;3.816;2023-11-21T03:00:26;9.70;99.90
48686;DHT22;34485;51.536;3.816;2023-11-21T03:02:54;9.70;99.90
48686;DHT22;34485;51.536;3.816;2023-11-21T03:05:21;9.70;99.90
48686;DHT22;34485;51.536;3.816;2023-11-21T03:10:15;9.70;99.90
48686;DHT22;34485;51.536;3.816;2023-11-21T03:12:41;9.70;99.90
48686;DHT22;34485;51.536;3.816;2023-11-21T03:15:08;9.70;99.90
48686;DHT22;34485;51.536;3.816;2023-11-21T03:17:34;9.70;99.90
48686;DHT22;34485;51.536;3.816;2023-11-21T03:20:00;9.70;99.90
48686;DHT22;34485;51.536;3.816;2023-11-21T03:22:25;9.80;99.90
48686;DHT22;34485;51.536;3.816;2023-11-21T03:24:52;9.80;99.90
48686;DHT22;34485;51.536;3.816;2023-11-21T03:29:48;9.80;99.90
48686;DHT22;34485;51.536;3.816;2023-11-21T03:32:14;9.80;99.90
48686;DHT22;34485;51.536;3.816;2023-11-21T03:34:56;9.80;99.90
48686;DHT22;34485;51.536;3.816;2023-11-21T03:37:23;9.80;99.90
48686;DHT22;34485;51.536;3.816;2023-11-21T03:39:48;9.80;99.90
48686;DHT22;34485;51.536;3.816;2023-11-21T03:42:14;9.80;99.90
48686;DHT22;34485;51.536;3.816;2023-11-21T03:44:40;9.80;99.90
48686;DHT22;34485;51.536;3.816;2023-11-21T03:47:06;9.80;99.90
48686;DHT22;34485;51.536;3.816;2023-11-21T03:49:31;9.80;99.90
48686;DHT22;34485;51.536;3.816;2023-11-21T03:51:57;9.80;99.90
48686;DHT22;34485;51.536;3.816;2023-11-21T03:54:22;9.80;99.90
48686;DHT22;34485;51.536;3.816;2023-11-21T03:56:48;9.70;99.90
48686;DHT22;34485;51.536;3.816;2023-11-21T03:59:14;9.70;99.90
48686;DHT22;34485;51.536;3.816;2023-11-21T04:01:39;9.60;99.90
48686;DHT22;34485;51.536;3.816;2023-11-21T04:04:05;9.60;99.90
48686;DHT22;34485;51.536;3.816;2023-11-21T04:06:31;9.60;99.90
48686;DHT22;34485;51.536;3.816;2023-11-21T04:08:58;9.60;99.90
48686;DHT22;34485;51.536;3.816;2023-11-21T04:11:24;9.60;99.90
48686;DHT22;34485;51.536;3.816;2023-11-21T04:13:49;9.60;99.90
48686;DHT22;34485;51.536;3.816;2023-11-21T04:16:15;9.50;99.90
48686;DHT22;34485;51.536;3.816;2023-11-21T04:18:40;9.50;99.90
48686;DHT22;34485;51.536;3.816;2023-11-21T04:21:06;9.60;99.90
48686;DHT22;34485;51.536;3.816;2023-11-21T04:23:33;9.60;99.90
48686;DHT22;34485;51.536;3.816;2023-11-21T04:25:59;9.60;99.90
48686;DHT22;34485;51.536;3.816;2023-11-21T04:28:25;9.60;99.90
48686;DHT22;34485;51.536;3.816;2023-11-21T04:30:50;9.60;99.90
48686;DHT22;34485;51.536;3.816;2023-11-21T04:33:16;9.60;99.90
48686;DHT22;34485;51.536;3.816;2023-11-21T04:35:42;9.60;99.90
48686;DHT22;34485;51.536;3.816;2023-11-21T04:38:08;9.50;99.90
48686;DHT22;34485;51.536;3.816;2023-11-21T04:40:33;9.50;99.90
48686;DHT22;34485;51.536;3.816;2023-11-21T04:42:59;9.40;99.90
48686;DHT22;34485;51.536;3.816;2023-11-21T04:45:25;9.40;99.90
48686;DHT22;34485;51.536;3.816;2023-11-21T04:47:50;9.40;99.90
48686;DHT22;34485;51.536;3.816;2023-11-21T04:50:18;9.40;99.90
48686;DHT22;34485;51.536;3.816;2023-11-21T04:52:44;9.40;99.90
48686;DHT22;34485;51.536;3.816;2023-11-21T04:55:10;9.40;99.90
48686;DHT22;34485;51.536;3.816;2023-11-21T05:00:05;9.40;99.90
48686;DHT22;34485;51.536;3.816;2023-11-21T05:02:32;9.40;99.90
48686;DHT22;34485;51.536;3.816;2023-11-21T05:04:59;9.40;99.90
48686;DHT22;34485;51.536;3.816;2023-11-21T05:07:25;9.40;99.90
48686;DHT22;34485;51.536;3.816;2023-11-21T05:09:54;9.40;99.90
48686;DHT22;34485;51.536;3.816;2023-11-21T05:12:22;9.40;99.90
48686;DHT22;34485;51.536;3.816;2023-11-21T05:14:51;9.50;99.90
48686;DHT22;34485;51.536;3.816;2023-11-21T05:17:17;9.60;99.90
48686;DHT22;34485;51.536;3.816;2023-11-21T05:19:42;9.60;99.90
48686;DHT22;34485;51.536;3.816;2023-11-21T05:22:10;9.60;99.90
48686;DHT22;34485;51.536;3.816;2023-11-21T05:24:37;9.70;99.90
48686;DHT22;34485;51.536;3.816;2023-11-21T05:27:04;9.70;99.90
48686;DHT22;34485;51.536;3.816;2023-11-21T05:29:30;9.80;99.90
48686;DHT22;34485;51.536;3.816;2023-11-21T05:31:56;9.80;99.90
48686;DHT22;34485;51.536;3.816;2023-11-21T05:34:22;9.80;99.90
48686;DHT22;34485;51.536;3.816;2023-11-21T05:36:50;9.90;99.90
48686;DHT22;34485;51.536;3.816;2023-11-21T05:39:15;9.80;99.90
48686;DHT22;34485;51.536;3.816;2023-11-21T05:41:43;9.70;99.90
48686;DHT22;34485;51.536;3.816;2023-11-21T05:44:08;9.70;99.90
48686;DHT22;34485;51.536;3.816;2023-11-21T05:46:34;9.60;99.90
48686;DHT22;34485;51.536;3.816;2023-11-21T05:49:00;9.60;99.90
48686;DHT22;34485;51.536;3.816;2023-11-21T05:51:26;9.60;99.90
48686;DHT22;34485;51.536;3.816;2023-11-21T05:53:52;9.60;99.90
48686;DHT22;34485;51.536;3.816;2023-11-21T05:56:17;9.70;99.90
48686;DHT22;34485;51.536;3.816;2023-11-21T05:58:43;9.70;99.90
48686;DHT22;34485;51.536;3.816;2023-11-21T06:01:09;9.70;99.90
48686;DHT22;34485;51.536;3.816;2023-11-21T06:03:38;9.80;99.90
48686;DHT22;34485;51.536;3.816;2023-11-21T06:06:04;9.80;99.90
48686;DHT22;34485;51.536;3.816;2023-11-21T06:08:30;9.90;99.90
48686;DHT22;34485;51.536;3.816;2023-11-21T06:10:55;9.90;99.90
48686;DHT22;34485;51.536;3.816;2023-11-21T06:13:21;10.00;99.90
48686;DHT22;34485;51.536;3.816;2023-11-21T06:15:50;10.00;99.90
48686;DHT22;34485;51.536;3.816;2023-11-21T06:18:16;10.00;99.90
48686;DHT22;34485;51.536;3.816;2023-11-21T06:20:47;10.00;99.90
48686;DHT22;34485;51.536;3.816;2023-11-21T06:23:13;10.10;99.90
48686;DHT22;34485;51.536;3.816;2023-11-21T06:25:39;10.00;99.90
48686;DHT22;34485;51.536;3.816;2023-11-21T06:28:05;10.00;99.90
48686;DHT22;34485;51.536;3.816;2023-11-21T06:30:31;9.90;99.90
48686;DHT22;34485;51.536;3.816;2023-11-21T06:32:57;9.90;99.90
48686;DHT22;34485;51.536;3.816;2023-11-21T06:35:23;9.80;99.90
48686;DHT22;34485;51.536;3.816;2023-11-21T06:37:49;9.60;99.90
48686;DHT22;34485;51.536;3.816;2023-11-21T06:40:15;9.60;99.90
48686;DHT22;34485;51.536;3.816;2023-11-21T06:42:40;9.50;99.90
48686;DHT22;34485;51.536;3.816;2023-11-21T06:45:07;9.50;99.90
48686;DHT22;34485;51.536;3.816;2023-11-21T06:47:33;9.50;99.90
48686;DHT22;34485;51.536;3.816;2023-11-21T06:50:00;9.60;99.90
48686;DHT22;34485;51.536;3.816;2023-11-21T06:52:26;9.60;99.90
48686;DHT22;34485;51.536;3.816;2023-11-21T06:54:51;9.70;99.90
48686;DHT22;34485;51.536;3.816;2023-11-21T06:57:17;9.60;99.90
48686;DHT22;34485;51.536;3.816;2023-11-21T06:59:43;9.60;99.90
48686;DHT22;34485;51.536;3.816;2023-11-21T07:02:09;9.70;99.90
48686;DHT22;34485;51.536;3.816;2023-11-21T07:04:38;9.60;99.90
48686;DHT22;34485;51.536;3.816;2023-11-21T07:07:04;9.60;99.90
48686;DHT22;34485;51.536;3.816;2023-11-21T07:09:29;9.60;99.90
48686;DHT22;34485;51.536;3.816;2023-11-21T07:11:56;9.70;99.90
48686;DHT22;34485;51.536;3.816;2023-11-21T07:14:22;9.70;99.90
48686;DHT22;34485;51.536;3.816;2023-11-21T07:16:48;9.60;99.90
48686;DHT22;34485;51.536;3.816;2023-11-21T07:19:14;9.60;99.90
48686;DHT22;34485;51.536;3.816;2023-11-21T07:21:40;9.60;99.90
48686;DHT22;34485;51.536;3.816;2023-11-21T07:24:07;9.60;99.90
48686;DHT22;34485;51.536;3.816;2023-11-21T07:26:33;9.60;99.90
48686;DHT22;34485;51.536;3.816;2023-11-21T07:29:00;9.70;99.90
48686;DHT22;34485;51.536;3.816;2023-11-21T07:31:27;9.70;99.90
48686;DHT22;34485;51.536;3.816;2023-11-21T07:33:52;9.70;99.90
48686;DHT22;34485;51.536;3.816;2023-11-21T07:36:19;9.70;99.90
48686;DHT22;34485;51.536;3.816;2023-11-21T07:38:46;9.70;99.90
48686;DHT22;34485;51.536;3.816;2023-11-21T07:41:13;9.80;99.90
48686;DHT22;34485;51.536;3.816;2023-11-21T07:43:43;9.80;99.90
48686;DHT22;34485;51.536;3.816;2023-11-21T07:46:10;9.80;99.90
48686;DHT22;34485;51.536;3.816;2023-11-21T07:48:38;9.70;99.90
48686;DHT22;34485;51.536;3.816;2023-11-21T07:51:04;9.70;99.90
48686;DHT22;34485;51.536;3.816;2023-11-21T07:53:29;9.70;99.90
48686;DHT22;34485;51.536;3.816;2023-11-21T07:56:03;9.70;99.90
48686;DHT22;34485;51.536;3.816;2023-11-21T07:58:28;9.90;99.90
48686;DHT22;34485;51.536;3.816;2023-11-21T08:00:54;10.00;99.90
48686;DHT22;34485;51.536;3.816;2023-11-21T08:03:20;10.20;99.90
48686;DHT22;34485;51.536;3.816;2023-11-21T08:05:46;10.30;99.90
48686;DHT22;34485;51.536;3.816;2023-11-21T08:08:12;10.40;99.90
48686;DHT22;34485;51.536;3.816;2023-11-21T08:10:37;10.50;99.90
48686;DHT22;34485;51.536;3.816;2023-11-21T08:13:04;10.60;99.90
48686;DHT22;34485;51.536;3.816;2023-11-21T08:15:30;10.60;99.90
48686;DHT22;34485;51.536;3.816;2023-11-21T08:17:57;10.70;99.90
48686;DHT22;34485;51.536;3.816;2023-11-21T08:20:24;10.70;99.90
48686;DHT22;34485;51.536;3.816;2023-11-21T08:22:51;10.80;99.90
48686;DHT22;34485;51.536;3.816;2023-11-21T08:25:18;10.90;99.90
48686;DHT22;34485;51.536;3.816;2023-11-21T08:27:45;10.90;99.90
48686;DHT22;34485;51.536;3.816;2023-11-21T08:30:12;11.00;99.90
48686;DHT22;34485;51.536;3.816;2023-11-21T08:32:39;11.00;99.90
48686;DHT22;34485;51.536;3.816;2023-11-21T08:35:05;11.10;99.90
48686;DHT22;34485;51.536;3.816;2023-11-21T08:37:31;11.20;99.90
48686;DHT22;34485;51.536;3.816;2023-11-21T08:39:58;11.20;99.90
48686;DHT22;34485;51.536;3.816;2023-11-21T08:42:29;11.20;99.90
48686;DHT22;34485;51.536;3.816;2023-11-21T08:44:55;11.30;99.90
48686;DHT22;34485;51.536;3.816;2023-11-21T08:47:23;11.40;99.90
48686;DHT22;34485;51.536;3.816;2023-11-21T08:49:50;11.50;99.90
48686;DHT22;34485;51.536;3.816;2023-11-21T08:52:19;11.50;99.90
48686;DHT22;34485;51.536;3.816;2023-11-21T08:54:51;11.60;99.90
48686;DHT22;34485;51.536;3.816;2023-11-21T08:57:25;11.70;99.90
48686;DHT22;34485;51.536;3.816;2023-11-21T08:59:50;11.80;99.90
48686;DHT22;34485;51.536;3.816;2023-11-21T09:02:21;11.90;99.90
48686;DHT22;34485;51.536;3.816;2023-11-21T09:04:50;12.10;99.90
48686;DHT22;34485;51.536;3.816;2023-11-21T09:07:20;12.20;99.90
48686;DHT22;34485;51.536;3.816;2023-11-21T09:09:47;12.30;99.90
48686;DHT22;34485;51.536;3.816;2023-11-21T09:12:13;12.40;99.90
48686;DHT22;34485;51.536;3.816;2023-11-21T09:14:39;12.70;99.90
48686;DHT22;34485;51.536;3.816;2023-11-21T09:17:05;13.10;99.90
48686;DHT22;34485;51.536;3.816;2023-11-21T09:22:03;14.00;99.90
48686;DHT22;34485;51.536;3.816;2023-11-21T09:24:28;14.40;99.90
48686;DHT22;34485;51.536;3.816;2023-11-21T09:26:54;14.70;99.90
48686;DHT22;34485;51.536;3.816;2023-11-21T09:29:19;15.10;99.90
48686;DHT22;34485;51.536;3.816;2023-11-21T09:31:45;15.20;99.90
48686;DHT22;34485;51.536;3.816;2023-11-21T09:34:11;15.40;99.90
48686;DHT22;34485;51.536;3.816;2023-11-21T09:36:37;15.60;99.90
48686;DHT22;34485;51.536;3.816;2023-11-21T09:39:04;15.70;99.90
48686;DHT22;34485;51.536;3.816;2023-11-21T09:41:59;16.10;99.90
48686;DHT22;34485;51.536;3.816;2023-11-21T09:44:58;16.40;99.90
48686;DHT22;34485;51.536;3.816;2023-11-21T09:47:26;16.50;99.90
48686;DHT22;34485;51.536;3.816;2023-11-21T09:49:54;16.50;99.90
48686;DHT22;34485;51.536;3.816;2023-11-21T09:52:26;16.30;99.90
48686;DHT22;34485;51.536;3.816;2023-11-21T09:54:52;16.30;99.90
48686;DHT22;34485;51.536;3.816;2023-11-21T09:57:23;16.30;99.90
48686;DHT22;34485;51.536;3.816;2023-11-21T09:59:54;16.20;99.90
48686;DHT22;34485;51.536;3.816;2023-11-21T10:02:28;16.10;99.90
48686;DHT22;34485;51.536;3.816;2023-11-21T10:04:56;15.80;99.90
48686;DHT22;34485;51.536;3.816;2023-11-21T10:07:23;15.40;99.90
48686;DHT22;34485;51.536;3.816;2023-11-21T10:09:51;14.90;99.90
48686;DHT22;34485;51.536;3.816;2023-11-21T10:12:17;14.50;99.90
48686;DHT22;34485;51.536;3.816;2023-11-21T10:14:48;14.20;99.90
48686;DHT22;34485;51.536;3.816;2023-11-21T10:17:15;13.80;99.90
48686;DHT22;34485;51.536;3.816;2023-11-21T10:19:47;13.50;99.90
48686;DHT22;34485;51.536;3.816;2023-11-21T10:22:17;13.30;99.90
48686;DHT22;34485;51.536;3.816;2023-11-21T10:24:42;13.20;99.90
48686;DHT22;34485;51.536;3.816;2023-11-21T10:27:09;13.10;99.90
48686;DHT22;34485;51.536;3.816;2023-11-21T10:29:34;13.00;99.90
48686;DHT22;34485;51.536;3.816;2023-11-21T10:32:02;12.90;99.90
48686;DHT22;34485;51.536;3.816;2023-11-21T10:34:28;12.90;99.90
48686;DHT22;34485;51.536;3.816;2023-11-21T10:36:55;13.00;99.90
48686;DHT22;34485;51.536;3.816;2023-11-21T10:39:24;13.10;99.90
48686;DHT22;34485;51.536;3.816;2023-11-21T10:41:54;13.20;99.90
48686;DHT22;34485;51.536;3.816;2023-11-21T10:44:20;13.20;99.90
48686;DHT22;34485;51.536;3.816;2023-11-21T10:46:55;13.20;99.90
48686;DHT22;34485;51.536;3.816;2023-11-21T10:49:26;13.10;99.90
48686;DHT22;34485;51.536;3.816;2023-11-21T10:51:55;13.20;99.90
48686;DHT22;34485;51.536;3.816;2023-11-21T10:54:23;13.10;99.90
48686;DHT22;34485;51.536;3.816;2023-11-21T10:56:50;13.10;99.90
48686;DHT22;34485;51.536;3.816;2023-11-21T10:59:17;13.10;99.90
48686;DHT22;34485;51.536;3.816;2023-11-21T11:01:45;13.20;99.90
48686;DHT22;34485;51.536;3.816;2023-11-21T11:04:12;13.00;99.90
48686;DHT22;34485;51.536;3.816;2023-11-21T11:06:52;13.00;99.90
48686;DHT22;34485;51.536;3.816;2023-11-21T11:09:19;13.00;99.90
48686;DHT22;34485;51.536;3.816;2023-11-21T11:11:45;13.10;99.90
48686;DHT22;34485;51.536;3.816;2023-11-21T11:14:12;13.00;99.90
48686;DHT22;34485;51.536;3.816;2023-11-21T11:16:41;13.00;99.90
48686;DHT22;34485;51.536;3.816;2023-11-21T11:19:09;12.90;99.90
48686;DHT22;34485;51.536;3.816;2023-11-21T11:21:43;12.90;99.90
48686;DHT22;34485;51.536;3.816;2023-11-21T11:27:37;12.70;99.90
48686;DHT22;34485;51.536;3.816;2023-11-21T11:33:13;12.40;99.90
48686;DHT22;34485;51.536;3.816;2023-11-21T11:35:53;12.20;99.90
48686;DHT22;34485;51.536;3.816;2023-11-21T11:38:22;12.10;99.90
48686;DHT22;34485;51.536;3.816;2023-11-21T11:40:53;12.00;99.90
48686;DHT22;34485;51.536;3.816;2023-11-21T11:43:28;11.90;99.90
48686;DHT22;34485;51.536;3.816;2023-11-21T11:45:58;11.90;99.90
48686;DHT22;34485;51.536;3.816;2023-11-21T11:48:29;11.80;99.90
48686;DHT22;34485;51.536;3.816;2023-11-21T11:51:10;11.80;99.90
48686;DHT22;34485;51.536;3.816;2023-11-21T11:53:45;11.80;99.90
48686;DHT22;34485;51.536;3.816;2023-11-21T11:56:27;11.80;99.90
48686;DHT22;34485;51.536;3.816;2023-11-21T11:58:55;11.90;99.90
48686;DHT22;34485;51.536;3.816;2023-11-21T12:01:22;12.00;99.90
48686;DHT22;34485;51.536;3.816;2023-11-21T12:06:41;12.10;99.90
48686;DHT22;34485;51.536;3.816;2023-11-21T12:09:06;12.20;99.90
48686;DHT22;34485;51.536;3.816;2023-11-21T12:11:33;12.20;99.90
48686;DHT22;34485;51.536;3.816;2023-11-21T12:14:01;12.20;99.90
48686;DHT22;34485;51.536;3.816;2023-11-21T12:16:27;12.20;99.90
48686;DHT22;34485;51.536;3.816;2023-11-21T12:18:53;12.20;99.90
48686;DHT22;34485;51.536;3.816;2023-11-21T12:21:20;12.20;99.90
48686;DHT22;34485;51.536;3.816;2023-11-21T12:23:46;12.20;99.90
48686;DHT22;34485;51.536;3.816;2023-11-21T12:26:13;12.20;99.90
48686;DHT22;34485;51.536;3.816;2023-11-21T12:28:39;12.20;99.90
48686;DHT22;34485;51.536;3.816;2023-11-21T12:31:05;12.20;99.90
48686;DHT22;34485;51.536;3.816;2023-11-21T12:33:33;12.20;99.90
48686;DHT22;34485;51.536;3.816;2023-11-21T12:35:58;12.20;99.90
48686;DHT22;34485;51.536;3.816;2023-11-21T12:38:24;12.20;99.90
48686;DHT22;34485;51.536;3.816;2023-11-21T12:40:50;12.20;99.90
48686;DHT22;34485;51.536;3.816;2023-11-21T12:43:17;12.20;99.90
48686;DHT22;34485;51.536;3.816;2023-11-21T12:45:43;12.20;99.90
48686;DHT22;34485;51.536;3.816;2023-11-21T12:48:09;12.30;99.90
48686;DHT22;34485;51.536;3.816;2023-11-21T12:50:37;12.40;99.90
48686;DHT22;34485;51.536;3.816;2023-11-21T12:53:11;12.40;99.90
48686;DHT22;34485;51.536;3.816;2023-11-21T12:55:43;12.50;99.90
48686;DHT22;34485;51.536;3.816;2023-11-21T12:58:15;12.50;99.90
48686;DHT22;34485;51.536;3.816;2023-11-21T13:00:48;12.40;99.90
48686;DHT22;34485;51.536;3.816;2023-11-21T13:03:16;12.30;99.90
48686;DHT22;34485;51.536;3.816;2023-11-21T13:05:49;12.20;99.90
48686;DHT22;34485;51.536;3.816;2023-11-21T13:08:21;12.20;99.90
48686;DHT22;34485;51.536;3.816;2023-11-21T13:10:53;12.20;99.90
48686;DHT22;34485;51.536;3.816;2023-11-21T13:13:19;12.10;99.90
48686;DHT22;34485;51.536;3.816;2023-11-21T13:18:25;12.10;99.90
48686;DHT22;34485;51.536;3.816;2023-11-21T13:20:53;12.10;99.90
48686;DHT22;34485;51.536;3.816;2023-11-21T13:23:20;12.00;99.90
48686;DHT22;34485;51.536;3.816;2023-11-21T13:25:46;12.00;99.90
48686;DHT22;34485;51.536;3.816;2023-11-21T13:28:13;12.00;99.90
48686;DHT22;34485;51.536;3.816;2023-11-21T13:30:41;12.00;99.90
48686;DHT22;34485;51.536;3.816;2023-11-21T13:33:08;12.00;99.90
48686;DHT22;34485;51.536;3.816;2023-11-21T13:35:35;12.00;99.90
48686;DHT22;34485;51.536;3.816;2023-11-21T13:38:11;12.00;99.90
48686;DHT22;34485;51.536;3.816;2023-11-21T13:40:39;12.00;99.90
48686;DHT22;34485;51.536;3.816;2023-11-21T13:43:16;11.90;99.90
48686;DHT22;34485;51.536;3.816;2023-11-21T13:45:44;11.90;99.90
48686;DHT22;34485;51.536;3.816;2023-11-21T13:48:10;11.90;99.90
48686;DHT22;34485;51.536;3.816;2023-11-21T13:50:39;11.90;99.90
48686;DHT22;34485;51.536;3.816;2023-11-21T13:53:14;11.90;99.90
48686;DHT22;34485;51.536;3.816;2023-11-21T13:55:50;11.90;99.90
48686;DHT22;34485;51.536;3.816;2023-11-21T13:58:16;11.90;99.90
48686;DHT22;34485;51.536;3.816;2023-11-21T14:00:49;11.90;99.90
48686;DHT22;34485;51.536;3.816;2023-11-21T14:03:25;11.90;99.90
48686;DHT22;34485;51.536;3.816;2023-11-21T14:06:03;11.90;99.90
48686;DHT22;34485;51.536;3.816;2023-11-21T14:08:34;11.90;99.90
48686;DHT22;34485;51.536;3.816;2023-11-21T14:11:00;12.00;99.90
48686;DHT22;34485;51.536;3.816;2023-11-21T14:13:26;12.00;99.90
48686;DHT22;34485;51.536;3.816;2023-11-21T14:15:52;12.00;99.90
48686;DHT22;34485;51.536;3.816;2023-11-21T14:18:24;12.10;99.90
48686;DHT22;34485;51.536;3.816;2023-11-21T14:21:01;12.20;99.90
48686;DHT22;34485;51.536;3.816;2023-11-21T14:23:27;12.20;99.90
48686;DHT22;34485;51.536;3.816;2023-11-21T14:25:54;12.20;99.90
48686;DHT22;34485;51.536;3.816;2023-11-21T14:28:19;12.20;99.90
48686;DHT22;34485;51.536;3.816;2023-11-21T14:30:48;12.20;99.90
48686;DHT22;34485;51.536;3.816;2023-11-21T14:33:14;12.10;99.90
48686;DHT22;34485;51.536;3.816;2023-11-21T14:35:42;12.10;99.90
48686;DHT22;34485;51.536;3.816;2023-11-21T14:38:08;12.00;99.90
48686;DHT22;34485;51.536;3.816;2023-11-21T14:40:35;11.80;99.90
48686;DHT22;34485;51.536;3.816;2023-11-21T14:43:02;11.70;99.90
48686;DHT22;34485;51.536;3.816;2023-11-21T14:45:31;11.60;99.90
48686;DHT22;34485;51.536;3.816;2023-11-21T14:47:57;11.60;99.90
48686;DHT22;34485;51.536;3.816;2023-11-21T14:50:32;11.50;99.90
48686;DHT22;34485;51.536;3.816;2023-11-21T14:53:14;11.40;99.90
48686;DHT22;34485;51.536;3.816;2023-11-21T14:55:40;11.40;99.90
48686;DHT22;34485;51.536;3.816;2023-11-21T14:58:16;11.40;99.90
48686;DHT22;34485;51.536;3.816;2023-11-21T15:00:50;11.40;99.90
48686;DHT22;34485;51.536;3.816;2023-11-21T15:03:22;11.40;99.90
48686;DHT22;34485;51.536;3.816;2023-11-21T15:06:09;11.40;99.90
48686;DHT22;34485;51.536;3.816;2023-11-21T15:08:52;11.40;99.90
48686;DHT22;34485;51.536;3.816;2023-11-21T15:11:41;11.40;99.90
48686;DHT22;34485;51.536;3.816;2023-11-21T15:14:07;11.40;99.90
48686;DHT22;34485;51.536;3.816;2023-11-21T15:16:35;11.40;99.90
48686;DHT22;34485;51.536;3.816;2023-11-21T15:19:06;11.30;99.90
48686;DHT22;34485;51.536;3.816;2023-11-21T15:21:32;11.30;99.90
48686;DHT22;34485;51.536;3.816;2023-11-21T15:23:58;11.40;99.90
48686;DHT22;34485;51.536;3.816;2023-11-21T15:26:24;11.30;99.90
48686;DHT22;34485;51.536;3.816;2023-11-21T15:28:49;11.30;99.90
48686;DHT22;34485;51.536;3.816;2023-11-21T15:31:15;11.30;99.90
48686;DHT22;34485;51.536;3.816;2023-11-21T15:33:48;11.30;99.90
48686;DHT22;34485;51.536;3.816;2023-11-21T15:36:13;11.30;99.90
48686;DHT22;34485;51.536;3.816;2023-11-21T15:38:40;11.20;99.90
48686;DHT22;34485;51.536;3.816;2023-11-21T15:41:06;11.20;99.90
48686;DHT22;34485;51.536;3.816;2023-11-21T15:43:35;11.20;99.90
48686;DHT22;34485;51.536;3.816;2023-11-21T15:46:01;11.20;99.90
48686;DHT22;34485;51.536;3.816;2023-11-21T15:48:35;11.20;99.90
48686;DHT22;34485;51.536;3.816;2023-11-21T15:51:04;11.20;99.90
48686;DHT22;34485;51.536;3.816;2023-11-21T15:53:30;11.10;99.90
48686;DHT22;34485;51.536;3.816;2023-11-21T15:55:57;11.10;99.90
48686;DHT22;34485;51.536;3.816;2023-11-21T15:58:23;11.10;99.90
48686;DHT22;34485;51.536;3.816;2023-11-21T16:00:50;11.10;99.90
48686;DHT22;34485;51.536;3.816;2023-11-21T16:03:16;11.10;99.90
48686;DHT22;34485;51.536;3.816;2023-11-21T16:05:42;11.10;99.90
48686;DHT22;34485;51.536;3.816;2023-11-21T16:08:08;11.00;99.90
48686;DHT22;34485;51.536;3.816;2023-11-21T16:10:33;11.00;99.90